UAL6767 KDEN-KOMA
Flight info
| Callsign | UAL6767 |
|---|---|
| Flight time | 1h 8m |
| Altitude | 37000 |
| Route | EEONS8 WYNDM DCT HCT DCT GRI HOWRY3 |
| Aircraft | B738/M-SDE2E3FGHIRWXY/LB1 |
Departure
| Time | 2026-05-04 12:33 |
|---|---|
| Airport | Denver International Airport (KDEN) |
Arrival
| Time | 2026-05-04 13:42 |
|---|---|
| Airport | Eppley Airfield (KOMA) |
| Time | Latitude | Longitude | Altitude | Speed | Heading |
|---|---|---|---|---|---|
| 2026-05-04 11:57 | 39.85336 | -104.67713 | 5380 ft | 0 kts | 0° |
| 2026-05-04 11:59 | 39.85336 | -104.67712 | 5382 ft | 0 kts | 0° |
| 2026-05-04 12:00 | 39.85336 | -104.67713 | 5382 ft | 0 kts | 0° |
| 2026-05-04 12:02 | 39.85336 | -104.67712 | 5382 ft | 0 kts | 360° |
| 2026-05-04 12:03 | 39.85336 | -104.67713 | 5382 ft | 0 kts | 360° |
| 2026-05-04 12:04 | 39.85336 | -104.67712 | 5382 ft | 0 kts | 360° |
| 2026-05-04 12:12 | 39.85334 | -104.67712 | 5382 ft | 2 kts | 0° |
| 2026-05-04 12:12 | 39.85318 | -104.67713 | 5381 ft | 2 kts | 1° |
| 2026-05-04 12:13 | 39.85302 | -104.67713 | 5382 ft | 2 kts | 1° |
| 2026-05-04 12:14 | 39.85264 | -104.67677 | 5380 ft | 0 kts | 93° |
| 2026-05-04 12:16 | 39.85264 | -104.67675 | 5380 ft | 2 kts | 93° |
| 2026-05-04 12:16 | 39.85262 | -104.67631 | 5382 ft | 5 kts | 93° |
| 2026-05-04 12:16 | 39.85261 | -104.67609 | 5382 ft | 2 kts | 93° |
| 2026-05-04 12:17 | 39.85260 | -104.67593 | 5382 ft | 2 kts | 93° |
| 2026-05-04 12:17 | 39.85260 | -104.67578 | 5382 ft | 1 kts | 93° |
| 2026-05-04 12:17 | 39.85257 | -104.67548 | 5382 ft | 8 kts | 97° |
| 2026-05-04 12:17 | 39.85245 | -104.67441 | 5382 ft | 15 kts | 105° |
| 2026-05-04 12:18 | 39.85236 | -104.67374 | 5382 ft | 0 kts | 91° |
| 2026-05-04 12:18 | 39.85236 | -104.67373 | 5382 ft | 1 kts | 91° |
| 2026-05-04 12:18 | 39.85235 | -104.67358 | 5382 ft | 1 kts | 91° |
| 2026-05-04 12:19 | 39.85235 | -104.67355 | 5382 ft | 1 kts | 90° |
| 2026-05-04 12:19 | 39.85235 | -104.67306 | 5382 ft | 10 kts | 90° |
| 2026-05-04 12:19 | 39.85235 | -104.67180 | 5382 ft | 18 kts | 91° |
| 2026-05-04 12:19 | 39.85233 | -104.67000 | 5382 ft | 20 kts | 90° |
| 2026-05-04 12:20 | 39.85232 | -104.66832 | 5382 ft | 19 kts | 91° |
| 2026-05-04 12:20 | 39.85231 | -104.66661 | 5384 ft | 11 kts | 90° |
| 2026-05-04 12:20 | 39.85233 | -104.66574 | 5387 ft | 6 kts | 70° |
| 2026-05-04 12:20 | 39.85262 | -104.66556 | 5387 ft | 7 kts | 359° |
| 2026-05-04 12:21 | 39.85348 | -104.66556 | 5384 ft | 17 kts | 0° |
| 2026-05-04 12:21 | 39.85474 | -104.66567 | 5384 ft | 15 kts | 336° |
| 2026-05-04 12:21 | 39.85579 | -104.66559 | 5378 ft | 17 kts | 55° |
| 2026-05-04 12:21 | 39.85584 | -104.66414 | 5386 ft | 16 kts | 90° |
| 2026-05-04 12:22 | 39.85585 | -104.66292 | 5392 ft | 12 kts | 84° |
| 2026-05-04 12:22 | 39.85646 | -104.66236 | 5391 ft | 13 kts | 0° |
| 2026-05-04 12:22 | 39.85752 | -104.66234 | 5388 ft | 17 kts | 0° |
| 2026-05-04 12:22 | 39.85863 | -104.66234 | 5387 ft | 15 kts | 0° |
| 2026-05-04 12:23 | 39.85963 | -104.66232 | 5387 ft | 13 kts | 1° |
| 2026-05-04 12:23 | 39.86056 | -104.66230 | 5385 ft | 12 kts | 1° |
| 2026-05-04 12:23 | 39.86111 | -104.66176 | 5382 ft | 7 kts | 80° |
| 2026-05-04 12:23 | 39.86108 | -104.66151 | 5384 ft | 0 kts | 105° |
| 2026-05-04 12:26 | 39.86106 | -104.66141 | 5381 ft | 3 kts | 103° |
| 2026-05-04 12:26 | 39.86104 | -104.66100 | 5384 ft | 6 kts | 91° |
| 2026-05-04 12:26 | 39.86111 | -104.66043 | 5382 ft | 6 kts | 68° |
| 2026-05-04 12:27 | 39.86103 | -104.66014 | 5384 ft | 3 kts | 129° |
| 2026-05-04 12:27 | 39.86100 | -104.66012 | 5384 ft | 0 kts | 154° |
| 2026-05-04 12:27 | 39.86097 | -104.66014 | 5384 ft | 2 kts | 189° |
| 2026-05-04 12:27 | 39.86082 | -104.66016 | 5382 ft | 0 kts | 182° |
| 2026-05-04 12:28 | 39.86081 | -104.66016 | 5384 ft | 0 kts | 181° |
| 2026-05-04 12:32 | 39.86080 | -104.66016 | 5384 ft | 0 kts | 181° |
| 2026-05-04 12:32 | 39.86079 | -104.66016 | 5385 ft | 3 kts | 181° |
| 2026-05-04 12:33 | 39.85826 | -104.66021 | 5390 ft | 74 kts | 179° |
| 2026-05-04 12:33 | 39.85070 | -104.66029 | 5402 ft | 141 kts | 181° |
| 2026-05-04 12:33 | 39.83947 | -104.66029 | 5670 ft | 177 kts | 182° |
| 2026-05-04 12:33 | 39.82682 | -104.65978 | 6498 ft | 188 kts | 167° |
| 2026-05-04 12:34 | 39.81491 | -104.65161 | 7229 ft | 201 kts | 141° |
| 2026-05-04 12:34 | 39.80486 | -104.63799 | 7844 ft | 215 kts | 126° |
| 2026-05-04 12:34 | 39.79936 | -104.61943 | 8356 ft | 232 kts | 93° |
| 2026-05-04 12:34 | 39.80193 | -104.59850 | 8964 ft | 239 kts | 65° |
| 2026-05-04 12:35 | 39.81230 | -104.58228 | 9603 ft | 238 kts | 27° |
| 2026-05-04 12:35 | 39.82765 | -104.57418 | 10334 ft | 239 kts | 16° |
| 2026-05-04 12:35 | 39.84360 | -104.56720 | 11013 ft | 243 kts | 15° |
| 2026-05-04 12:35 | 39.85981 | -104.56024 | 11696 ft | 246 kts | 15° |
| 2026-05-04 12:36 | 39.87615 | -104.55319 | 12400 ft | 248 kts | 15° |
| 2026-05-04 12:36 | 39.89260 | -104.54605 | 13094 ft | 249 kts | 15° |
| 2026-05-04 12:36 | 39.90921 | -104.53880 | 13690 ft | 255 kts | 14° |
| 2026-05-04 12:36 | 39.92624 | -104.53132 | 14169 ft | 263 kts | 14° |
| 2026-05-04 12:37 | 39.94390 | -104.52354 | 14599 ft | 272 kts | 15° |
| 2026-05-04 12:37 | 39.96182 | -104.51560 | 15025 ft | 279 kts | 15° |
| 2026-05-04 12:37 | 39.98041 | -104.50732 | 15475 ft | 286 kts | 15° |
| 2026-05-04 12:37 | 39.99961 | -104.49875 | 15790 ft | 298 kts | 15° |
| 2026-05-04 12:38 | 40.01979 | -104.48974 | 16065 ft | 315 kts | 15° |
| 2026-05-04 12:38 | 40.04116 | -104.48019 | 16370 ft | 334 kts | 16° |
| 2026-05-04 12:38 | 40.06381 | -104.47004 | 16706 ft | 351 kts | 16° |
| 2026-05-04 12:38 | 40.08708 | -104.45958 | 17021 ft | 364 kts | 16° |
| 2026-05-04 12:39 | 40.11143 | -104.44861 | 17354 ft | 376 kts | 16° |
| 2026-05-04 12:39 | 40.13654 | -104.43728 | 17675 ft | 386 kts | 16° |
| 2026-05-04 12:39 | 40.16214 | -104.42571 | 18012 ft | 391 kts | 16° |
| 2026-05-04 12:39 | 40.18726 | -104.41434 | 18303 ft | 391 kts | 16° |
| 2026-05-04 12:40 | 40.21303 | -104.40267 | 18590 ft | 391 kts | 16° |
| 2026-05-04 12:40 | 40.23881 | -104.39100 | 18878 ft | 391 kts | 15° |
| 2026-05-04 12:40 | 40.26421 | -104.37949 | 19165 ft | 392 kts | 15° |
| 2026-05-04 12:40 | 40.29033 | -104.36767 | 19461 ft | 392 kts | 15° |
| 2026-05-04 12:41 | 40.31586 | -104.35610 | 19754 ft | 394 kts | 15° |
| 2026-05-04 12:41 | 40.34181 | -104.34434 | 20055 ft | 395 kts | 15° |
| 2026-05-04 12:41 | 40.36785 | -104.33252 | 20350 ft | 397 kts | 15° |
| 2026-05-04 12:41 | 40.39405 | -104.32063 | 20655 ft | 400 kts | 15° |
| 2026-05-04 12:42 | 40.42047 | -104.30862 | 20959 ft | 402 kts | 15° |
| 2026-05-04 12:42 | 40.44703 | -104.29654 | 21267 ft | 405 kts | 15° |
| 2026-05-04 12:42 | 40.47371 | -104.28439 | 21574 ft | 408 kts | 15° |
| 2026-05-04 12:42 | 40.50059 | -104.27214 | 21890 ft | 410 kts | 15° |
| 2026-05-04 12:43 | 40.52775 | -104.25975 | 22212 ft | 413 kts | 15° |
| 2026-05-04 12:43 | 40.55476 | -104.24631 | 22518 ft | 419 kts | 21° |
| 2026-05-04 12:43 | 40.58051 | -104.22688 | 22630 ft | 435 kts | 31° |
| 2026-05-04 12:43 | 40.60426 | -104.20099 | 22722 ft | 452 kts | 41° |
| 2026-05-04 12:44 | 40.62592 | -104.17095 | 22960 ft | 460 kts | 44° |
| 2026-05-04 12:44 | 40.64749 | -104.13957 | 23360 ft | 463 kts | 44° |
| 2026-05-04 12:44 | 40.66807 | -104.10628 | 23712 ft | 470 kts | 53° |
| 2026-05-04 12:44 | 40.68384 | -104.06818 | 24044 ft | 477 kts | 64° |
| 2026-05-04 12:45 | 40.69474 | -104.02661 | 24366 ft | 483 kts | 73° |
| 2026-05-04 12:45 | 40.70081 | -103.98353 | 24934 ft | 479 kts | 79° |
| 2026-05-04 12:45 | 40.70583 | -103.94059 | 25856 ft | 467 kts | 79° |
| 2026-05-04 12:45 | 40.71066 | -103.89850 | 26553 ft | 462 kts | 79° |
| 2026-05-04 12:46 | 40.71555 | -103.85655 | 27035 ft | 462 kts | 79° |
| 2026-05-04 12:46 | 40.72054 | -103.81457 | 27405 ft | 465 kts | 79° |
| 2026-05-04 12:46 | 40.72564 | -103.77244 | 27797 ft | 466 kts | 79° |
| 2026-05-04 12:46 | 40.73080 | -103.73024 | 28276 ft | 465 kts | 79° |
| 2026-05-04 12:47 | 40.73597 | -103.68814 | 28786 ft | 465 kts | 79° |
| 2026-05-04 12:47 | 40.74115 | -103.64601 | 29255 ft | 465 kts | 79° |
| 2026-05-04 12:47 | 40.74631 | -103.60391 | 29691 ft | 466 kts | 79° |
| 2026-05-04 12:47 | 40.75141 | -103.56224 | 30098 ft | 465 kts | 79° |
| 2026-05-04 12:48 | 40.75655 | -103.52002 | 30540 ft | 464 kts | 79° |
| 2026-05-04 12:48 | 40.76163 | -103.47811 | 31013 ft | 461 kts | 79° |
| 2026-05-04 12:48 | 40.76668 | -103.43632 | 31448 ft | 459 kts | 79° |
| 2026-05-04 12:48 | 40.77169 | -103.39474 | 31844 ft | 459 kts | 79° |
| 2026-05-04 12:49 | 40.77662 | -103.35365 | 32234 ft | 457 kts | 79° |
| 2026-05-04 12:49 | 40.78159 | -103.31216 | 32639 ft | 456 kts | 79° |
| 2026-05-04 12:49 | 40.78651 | -103.27090 | 33046 ft | 454 kts | 79° |
| 2026-05-04 12:49 | 40.79140 | -103.22978 | 33394 ft | 454 kts | 79° |
| 2026-05-04 12:50 | 40.79629 | -103.18856 | 33751 ft | 453 kts | 79° |
| 2026-05-04 12:50 | 40.79951 | -103.16137 | 33958 ft | 452 kts | 79° |
| 2026-05-04 12:50 | 40.80436 | -103.12027 | 34209 ft | 452 kts | 79° |
| 2026-05-04 12:50 | 40.81082 | -103.06540 | 34317 ft | 459 kts | 79° |
| 2026-05-04 12:51 | 40.81414 | -103.03711 | 34351 ft | 463 kts | 79° |
| 2026-05-04 12:51 | 40.82406 | -102.95221 | 34542 ft | 471 kts | 79° |
| 2026-05-04 12:51 | 40.82903 | -102.90936 | 34734 ft | 473 kts | 79° |
| 2026-05-04 12:52 | 40.83398 | -102.86653 | 34989 ft | 472 kts | 79° |
| 2026-05-04 12:52 | 40.83887 | -102.82403 | 35233 ft | 472 kts | 79° |
| 2026-05-04 12:52 | 40.84380 | -102.78108 | 35437 ft | 473 kts | 79° |
| 2026-05-04 12:52 | 40.84871 | -102.73814 | 35637 ft | 473 kts | 79° |
| 2026-05-04 12:53 | 40.85362 | -102.69513 | 35855 ft | 473 kts | 79° |
| 2026-05-04 12:53 | 40.85852 | -102.65204 | 36078 ft | 473 kts | 79° |
| 2026-05-04 12:53 | 40.86341 | -102.60893 | 36286 ft | 474 kts | 79° |
| 2026-05-04 12:53 | 40.86828 | -102.56583 | 36497 ft | 474 kts | 79° |
| 2026-05-04 12:54 | 40.87312 | -102.52278 | 36775 ft | 471 kts | 79° |
| 2026-05-04 12:54 | 40.88276 | -102.43677 | 36755 ft | 479 kts | 79° |
| 2026-05-04 12:55 | 40.89256 | -102.34887 | 36753 ft | 487 kts | 79° |
| 2026-05-04 12:55 | 40.90242 | -102.25962 | 36755 ft | 495 kts | 79° |
| 2026-05-04 12:56 | 40.91237 | -102.16881 | 36764 ft | 502 kts | 79° |
| 2026-05-04 12:56 | 40.92231 | -102.07738 | 36777 ft | 506 kts | 79° |
| 2026-05-04 12:57 | 40.93229 | -101.98484 | 36786 ft | 509 kts | 79° |
| 2026-05-04 12:57 | 40.94223 | -101.89199 | 36796 ft | 510 kts | 79° |
| 2026-05-04 12:58 | 40.95206 | -101.79942 | 36803 ft | 509 kts | 79° |
| 2026-05-04 12:58 | 40.96183 | -101.70677 | 36806 ft | 508 kts | 79° |
| 2026-05-04 12:59 | 40.97149 | -101.61437 | 36792 ft | 506 kts | 79° |
| 2026-05-04 12:59 | 40.98107 | -101.52210 | 36787 ft | 504 kts | 80° |
| 2026-05-04 13:00 | 40.99053 | -101.43020 | 36765 ft | 502 kts | 80° |
| 2026-05-04 13:00 | 40.99982 | -101.33925 | 36756 ft | 501 kts | 80° |
| 2026-05-04 13:01 | 41.00909 | -101.24782 | 36751 ft | 500 kts | 80° |
| 2026-05-04 13:01 | 41.01826 | -101.15653 | 36754 ft | 500 kts | 80° |
| 2026-05-04 13:02 | 41.02737 | -101.06524 | 36760 ft | 500 kts | 80° |
| 2026-05-04 13:02 | 41.03641 | -100.97383 | 36773 ft | 501 kts | 80° |
| 2026-05-04 13:03 | 41.04535 | -100.88265 | 36779 ft | 502 kts | 80° |
| 2026-05-04 13:03 | 41.05431 | -100.79058 | 36803 ft | 503 kts | 80° |
| 2026-05-04 13:04 | 41.06318 | -100.69856 | 36809 ft | 504 kts | 80° |
| 2026-05-04 13:04 | 41.07202 | -100.60606 | 36798 ft | 505 kts | 80° |
| 2026-05-04 13:05 | 41.08075 | -100.51392 | 36789 ft | 506 kts | 80° |
| 2026-05-04 13:05 | 41.08945 | -100.42135 | 36774 ft | 506 kts | 81° |
| 2026-05-04 13:06 | 41.09807 | -100.32873 | 36754 ft | 506 kts | 81° |
| 2026-05-04 13:06 | 41.10662 | -100.23610 | 36730 ft | 505 kts | 81° |
| 2026-05-04 13:07 | 41.11509 | -100.14351 | 36715 ft | 504 kts | 81° |
| 2026-05-04 13:07 | 41.12346 | -100.05120 | 36713 ft | 503 kts | 81° |
| 2026-05-04 13:08 | 41.13174 | -99.95903 | 36706 ft | 502 kts | 81° |
| 2026-05-04 13:08 | 41.13986 | -99.86781 | 36711 ft | 500 kts | 81° |
| 2026-05-04 13:09 | 41.14795 | -99.77613 | 36718 ft | 499 kts | 81° |
| 2026-05-04 13:09 | 41.15595 | -99.68466 | 36722 ft | 498 kts | 81° |
| 2026-05-04 13:10 | 41.16391 | -99.59273 | 36341 ft | 503 kts | 81° |
| 2026-05-04 13:10 | 41.16782 | -99.54721 | 36095 ft | 500 kts | 81° |
| 2026-05-04 13:10 | 41.17173 | -99.50145 | 35838 ft | 497 kts | 81° |
| 2026-05-04 13:10 | 41.17562 | -99.45580 | 35588 ft | 496 kts | 81° |
| 2026-05-04 13:11 | 41.17947 | -99.41034 | 35331 ft | 495 kts | 81° |
| 2026-05-04 13:11 | 41.18329 | -99.36500 | 35089 ft | 494 kts | 81° |
| 2026-05-04 13:11 | 41.18710 | -99.31963 | 34794 ft | 495 kts | 81° |
| 2026-05-04 13:11 | 41.19091 | -99.27409 | 34410 ft | 497 kts | 81° |
| 2026-05-04 13:12 | 41.19473 | -99.22829 | 34035 ft | 499 kts | 81° |
| 2026-05-04 13:12 | 41.19853 | -99.18243 | 33657 ft | 501 kts | 81° |
| 2026-05-04 13:12 | 41.20232 | -99.13636 | 33221 ft | 501 kts | 82° |
| 2026-05-04 13:12 | 41.20604 | -99.09090 | 32806 ft | 501 kts | 82° |
| 2026-05-04 13:13 | 41.20978 | -99.04506 | 32387 ft | 499 kts | 82° |
| 2026-05-04 13:13 | 41.21349 | -98.99920 | 31970 ft | 498 kts | 82° |
| 2026-05-04 13:13 | 41.21717 | -98.95355 | 31560 ft | 496 kts | 82° |
| 2026-05-04 13:13 | 41.22083 | -98.90798 | 31157 ft | 494 kts | 82° |
| 2026-05-04 13:14 | 41.22445 | -98.86261 | 30761 ft | 492 kts | 82° |
| 2026-05-04 13:14 | 41.22805 | -98.81738 | 30364 ft | 490 kts | 82° |
| 2026-05-04 13:14 | 41.23161 | -98.77239 | 29977 ft | 489 kts | 82° |
| 2026-05-04 13:14 | 41.23515 | -98.72741 | 29558 ft | 488 kts | 82° |
| 2026-05-04 13:15 | 41.23868 | -98.68241 | 29117 ft | 492 kts | 82° |
| 2026-05-04 13:15 | 41.24219 | -98.63748 | 28687 ft | 497 kts | 82° |
| 2026-05-04 13:15 | 41.24574 | -98.59174 | 28259 ft | 497 kts | 83° |
| 2026-05-04 13:15 | 41.24927 | -98.54591 | 27820 ft | 497 kts | 83° |
| 2026-05-04 13:16 | 41.25277 | -98.50030 | 27401 ft | 496 kts | 83° |
| 2026-05-04 13:16 | 41.25625 | -98.45460 | 26978 ft | 496 kts | 83° |
| 2026-05-04 13:16 | 41.25972 | -98.40888 | 26569 ft | 495 kts | 83° |
| 2026-05-04 13:16 | 41.26308 | -98.36429 | 26159 ft | 485 kts | 83° |
| 2026-05-04 13:17 | 41.26641 | -98.31979 | 25749 ft | 476 kts | 83° |
| 2026-05-04 13:17 | 41.26963 | -98.27648 | 25347 ft | 466 kts | 83° |
| 2026-05-04 13:17 | 41.27279 | -98.23397 | 24977 ft | 457 kts | 83° |
| 2026-05-04 13:17 | 41.27587 | -98.19219 | 24634 ft | 448 kts | 83° |
| 2026-05-04 13:18 | 41.27888 | -98.15133 | 24296 ft | 441 kts | 83° |
| 2026-05-04 13:18 | 41.28179 | -98.11161 | 23965 ft | 434 kts | 83° |
| 2026-05-04 13:18 | 41.28472 | -98.07155 | 23649 ft | 437 kts | 83° |
| 2026-05-04 13:18 | 41.28768 | -98.03098 | 23335 ft | 442 kts | 83° |
| 2026-05-04 13:19 | 41.29064 | -97.99012 | 22965 ft | 445 kts | 83° |
| 2026-05-04 13:19 | 41.29358 | -97.94921 | 22587 ft | 444 kts | 83° |
| 2026-05-04 13:19 | 41.29651 | -97.90821 | 22218 ft | 448 kts | 83° |
| 2026-05-04 13:19 | 41.29953 | -97.86605 | 21881 ft | 466 kts | 83° |
| 2026-05-04 13:20 | 41.30259 | -97.82289 | 21508 ft | 470 kts | 83° |
| 2026-05-04 13:20 | 41.30564 | -97.77951 | 21147 ft | 472 kts | 83° |
| 2026-05-04 13:20 | 41.30864 | -97.73648 | 20802 ft | 472 kts | 83° |
| 2026-05-04 13:20 | 41.31166 | -97.69294 | 20452 ft | 472 kts | 83° |
| 2026-05-04 13:21 | 41.31467 | -97.64940 | 20101 ft | 472 kts | 83° |
| 2026-05-04 13:21 | 41.31762 | -97.60641 | 19767 ft | 470 kts | 83° |
| 2026-05-04 13:21 | 41.32056 | -97.56329 | 19428 ft | 464 kts | 83° |
| 2026-05-04 13:21 | 41.32347 | -97.52057 | 19090 ft | 463 kts | 83° |
| 2026-05-04 13:22 | 41.32637 | -97.47774 | 18770 ft | 466 kts | 83° |
| 2026-05-04 13:22 | 41.32928 | -97.43461 | 18441 ft | 468 kts | 83° |
| 2026-05-04 13:22 | 41.33218 | -97.39133 | 18115 ft | 469 kts | 83° |
| 2026-05-04 13:22 | 41.33505 | -97.34814 | 17760 ft | 469 kts | 83° |
| 2026-05-04 13:23 | 41.33790 | -97.30509 | 17376 ft | 459 kts | 83° |
| 2026-05-04 13:23 | 41.34063 | -97.26336 | 17003 ft | 446 kts | 83° |
| 2026-05-04 13:23 | 41.34324 | -97.22325 | 16630 ft | 434 kts | 83° |
| 2026-05-04 13:23 | 41.34581 | -97.18360 | 16266 ft | 424 kts | 83° |
| 2026-05-04 13:24 | 41.34832 | -97.14494 | 15900 ft | 415 kts | 83° |
| 2026-05-04 13:24 | 41.35077 | -97.10688 | 15545 ft | 407 kts | 83° |
| 2026-05-04 13:24 | 41.35316 | -97.06964 | 15197 ft | 402 kts | 83° |
| 2026-05-04 13:25 | 41.35791 | -96.99533 | 14524 ft | 408 kts | 83° |
| 2026-05-04 13:25 | 41.36031 | -96.95759 | 14191 ft | 409 kts | 83° |
| 2026-05-04 13:25 | 41.36268 | -96.91984 | 14005 ft | 410 kts | 83° |
| 2026-05-04 13:25 | 41.36504 | -96.88203 | 13970 ft | 409 kts | 83° |
| 2026-05-04 13:26 | 41.36586 | -96.84419 | 13954 ft | 410 kts | 96° |
| 2026-05-04 13:26 | 41.35991 | -96.80720 | 14001 ft | 415 kts | 103° |
| 2026-05-04 13:26 | 41.35301 | -96.77022 | 13818 ft | 406 kts | 103° |
| 2026-05-04 13:26 | 41.34627 | -96.73374 | 13346 ft | 403 kts | 103° |
| 2026-05-04 13:27 | 41.33969 | -96.69748 | 12678 ft | 402 kts | 103° |
| 2026-05-04 13:27 | 41.33321 | -96.66114 | 12092 ft | 401 kts | 102° |
| 2026-05-04 13:27 | 41.32691 | -96.62550 | 11908 ft | 387 kts | 102° |
| 2026-05-04 13:27 | 41.32092 | -96.59152 | 11818 ft | 373 kts | 102° |
| 2026-05-04 13:28 | 41.31503 | -96.55808 | 11203 ft | 374 kts | 102° |
| 2026-05-04 13:28 | 41.30899 | -96.52374 | 10364 ft | 385 kts | 102° |
| 2026-05-04 13:28 | 41.30294 | -96.48945 | 10190 ft | 378 kts | 102° |
| 2026-05-04 13:28 | 41.29676 | -96.45451 | 10018 ft | 400 kts | 102° |
| 2026-05-04 13:29 | 41.29027 | -96.41786 | 9775 ft | 410 kts | 102° |
| 2026-05-04 13:29 | 41.28370 | -96.38087 | 9446 ft | 411 kts | 102° |
| 2026-05-04 13:29 | 41.27712 | -96.34391 | 9021 ft | 407 kts | 102° |
| 2026-05-04 13:29 | 41.27069 | -96.30791 | 8617 ft | 404 kts | 102° |
| 2026-05-04 13:30 | 41.26421 | -96.27164 | 8217 ft | 401 kts | 102° |
| 2026-05-04 13:30 | 41.25786 | -96.23615 | 7818 ft | 400 kts | 102° |
| 2026-05-04 13:30 | 41.25133 | -96.19970 | 7419 ft | 398 kts | 102° |
| 2026-05-04 13:30 | 41.24491 | -96.16394 | 7023 ft | 397 kts | 102° |
| 2026-05-04 13:31 | 41.23850 | -96.12826 | 6639 ft | 395 kts | 102° |
| 2026-05-04 13:31 | 41.23212 | -96.09279 | 6261 ft | 393 kts | 102° |
| 2026-05-04 13:31 | 41.22790 | -96.06934 | 5999 ft | 392 kts | 102° |
| 2026-05-04 13:31 | 41.22158 | -96.03422 | 5601 ft | 390 kts | 103° |
| 2026-05-04 13:32 | 41.21527 | -95.99935 | 5202 ft | 383 kts | 103° |
| 2026-05-04 13:32 | 41.20917 | -95.96552 | 4728 ft | 368 kts | 103° |
| 2026-05-04 13:32 | 41.20170 | -95.92330 | 4321 ft | 340 kts | 103° |
| 2026-05-04 13:32 | 41.19812 | -95.90300 | 4156 ft | 328 kts | 104° |
| 2026-05-04 13:33 | 41.18985 | -95.87644 | 4122 ft | 299 kts | 139° |
| 2026-05-04 13:33 | 41.17400 | -95.86122 | 4275 ft | 267 kts | 155° |
| 2026-05-04 13:33 | 41.15764 | -95.85082 | 4057 ft | 257 kts | 153° |
| 2026-05-04 13:33 | 41.14239 | -95.83922 | 3850 ft | 249 kts | 153° |
| 2026-05-04 13:34 | 41.12771 | -95.82808 | 3592 ft | 243 kts | 153° |
| 2026-05-04 13:34 | 41.11315 | -95.81704 | 3408 ft | 238 kts | 153° |
| 2026-05-04 13:34 | 41.09985 | -95.80451 | 3191 ft | 233 kts | 135° |
| 2026-05-04 13:34 | 41.08947 | -95.78866 | 3063 ft | 224 kts | 133° |
| 2026-05-04 13:35 | 41.07964 | -95.77327 | 2950 ft | 212 kts | 129° |
| 2026-05-04 13:35 | 41.07789 | -95.73830 | 2943 ft | 199 kts | 58° |
| 2026-05-04 13:35 | 41.08509 | -95.72268 | 2976 ft | 198 kts | 59° |
| 2026-05-04 13:36 | 41.09226 | -95.70742 | 2931 ft | 190 kts | 58° |
| 2026-05-04 13:36 | 41.09937 | -95.69346 | 2927 ft | 184 kts | 45° |
| 2026-05-04 13:36 | 41.11021 | -95.68611 | 2938 ft | 172 kts | 2° |
| 2026-05-04 13:36 | 41.12109 | -95.69011 | 2950 ft | 162 kts | 320° |
| 2026-05-04 13:37 | 41.12707 | -95.70205 | 2993 ft | 156 kts | 289° |
| 2026-05-04 13:37 | 41.13147 | -95.71557 | 2939 ft | 159 kts | 290° |
| 2026-05-04 13:37 | 41.13642 | -95.72846 | 2952 ft | 159 kts | 302° |
| 2026-05-04 13:37 | 41.14377 | -95.73948 | 2945 ft | 162 kts | 318° |
| 2026-05-04 13:38 | 41.15320 | -95.74829 | 2949 ft | 167 kts | 321° |
| 2026-05-04 13:38 | 41.16254 | -95.75710 | 2954 ft | 162 kts | 320° |
| 2026-05-04 13:38 | 41.17167 | -95.76576 | 2950 ft | 161 kts | 320° |
| 2026-05-04 13:38 | 41.18077 | -95.77438 | 2945 ft | 161 kts | 320° |
| 2026-05-04 13:39 | 41.18994 | -95.78308 | 2945 ft | 163 kts | 320° |
| 2026-05-04 13:39 | 41.19926 | -95.79181 | 2937 ft | 164 kts | 321° |
| 2026-05-04 13:39 | 41.20862 | -95.80043 | 2947 ft | 164 kts | 320° |
| 2026-05-04 13:39 | 41.21792 | -95.80919 | 2826 ft | 164 kts | 320° |
| 2026-05-04 13:40 | 41.22726 | -95.81812 | 2604 ft | 164 kts | 319° |
| 2026-05-04 13:40 | 41.23646 | -95.82692 | 2384 ft | 162 kts | 319° |
| 2026-05-04 13:40 | 41.24560 | -95.83562 | 2167 ft | 162 kts | 319° |
| 2026-05-04 13:40 | 41.25464 | -95.84425 | 1993 ft | 162 kts | 321° |
| 2026-05-04 13:41 | 41.26375 | -95.85294 | 1779 ft | 159 kts | 321° |
| 2026-05-04 13:41 | 41.27257 | -95.86135 | 1557 ft | 153 kts | 322° |
| 2026-05-04 13:41 | 41.28109 | -95.86947 | 1358 ft | 152 kts | 323° |
| 2026-05-04 13:42 | 41.29823 | -95.88588 | 997 ft | 142 kts | 324° |
| 2026-05-04 13:42 | 41.30517 | -95.89249 | 991 ft | 84 kts | 324° |
| 2026-05-04 13:42 | 41.30766 | -95.89486 | 991 ft | 31 kts | 324° |
| 2026-05-04 13:42 | 41.30933 | -95.89644 | 989 ft | 26 kts | 323° |
| 2026-05-04 13:43 | 41.30983 | -95.89766 | 986 ft | 13 kts | 249° |
| 2026-05-04 13:43 | 41.30938 | -95.89864 | 986 ft | 13 kts | 235° |
| 2026-05-04 13:43 | 41.30882 | -95.89968 | 990 ft | 15 kts | 234° |
| 2026-05-04 13:43 | 41.30819 | -95.90085 | 984 ft | 16 kts | 235° |
| 2026-05-04 13:44 | 41.30740 | -95.90171 | 986 ft | 14 kts | 169° |
| 2026-05-04 13:44 | 41.30656 | -95.90098 | 990 ft | 15 kts | 144° |
| 2026-05-04 13:44 | 41.30561 | -95.90008 | 987 ft | 19 kts | 144° |
| 2026-05-04 13:44 | 41.30447 | -95.89899 | 985 ft | 20 kts | 143° |
| 2026-05-04 13:45 | 41.30336 | -95.89794 | 992 ft | 19 kts | 144° |
| 2026-05-04 13:45 | 41.30231 | -95.89692 | 985 ft | 18 kts | 144° |
| 2026-05-04 13:45 | 41.30125 | -95.89605 | 988 ft | 18 kts | 167° |
| 2026-05-04 13:45 | 41.30022 | -95.89612 | 988 ft | 11 kts | 207° |
| 2026-05-04 13:46 | 41.30020 | -95.89686 | 986 ft | 10 kts | 340° |
| 2026-05-04 13:46 | 41.30088 | -95.89690 | 986 ft | 9 kts | 344° |
| 2026-05-04 13:46 | 41.30095 | -95.89703 | 985 ft | 1 kts | 295° |
| 2026-05-04 13:46 | 41.30097 | -95.89729 | 984 ft | 4 kts | 270° |
| 2026-05-04 13:47 | 41.30098 | -95.89761 | 992 ft | 3 kts | 275° |
| 2026-05-04 13:47 | 41.30099 | -95.89776 | 988 ft | 0 kts | 274° |